Terminal Aerodrome Forecast
Issued by NWS

Current Version | Previous Version | Text Only | Print | Product List | Glossary On
Versions: 1 2 3 4 5 6 7 8 9 10 11 12 13
000
FTUS42 TJSJ 110532
TAFIST
TAF
TIST 110532Z 1106/1206 08012KT P6SM SCT025 BKN060
     FM111400 10014KT P6SM FEW030 SCT050 BKN100
     FM111630 11015KT P6SM VCSH SCT030 SCT050
     FM112200 09010KT P6SM VCSH SCT030 SCT050=

USA.gov is the U.S. government's official web portal to all federal, state and local government web resources and services.